Time;durP1;ratioP1;P1;durP2;ratioP2;P2;SDS_P1;SDS_P2;PMS_P1;PMS_P2;Temp;Humidity;BMP_temperature;BMP_pressure;BME280_temperature;BME280_humidity;BME280_pressure;Samples;Min_cycle;Max_cycle;Signal;HPM_P1;HPM_P2
2021/07/20 00:00:42;;;;;;;;;;;;;;;-148.22;100.00;58358.63;5055694;28;1239;-89
2021/07/20 00:06:49;;;;;;;;;;;;;;;-148.22;100.00;58358.63;5056018;28;665;-91
2021/07/20 00:09:14;;;;;;;;;;;;;;;-148.22;100.00;58358.63;5054603;28;1890;-90
2021/07/20 00:11:39;;;;;;;;;;;;;;;-148.22;100.00;58358.63;5071208;28;1332;-90
2021/07/20 00:14:17;;;;;;;;;;;;;;;-148.22;100.00;58358.63;5071298;28;1228;-89
2021/07/20 00:16:52;;;;;;;;;;;;;;;-148.22;100.00;58358.63;5072915;28;1151;-91
2021/07/20 00:19:17;;;;;;;;;;;;;;;-148.22;100.00;58358.63;5059762;28;870;-90
2021/07/20 00:24:46;;;;;;;;;;;;;;;-148.22;100.00;58358.63;5059715;28;582;-90
2021/07/20 00:30:47;;;;;;;;;;;;;;;-148.22;100.00;58358.63;5059683;28;1910;-90
2021/07/20 00:33:22;;;;;;;;;;;;;;;-148.22;100.00;58358.63;5058290;28;1286;-90
2021/07/20 00:35:49;;;;;;;;;;;;;;;-148.22;100.00;58358.63;5059494;28;822;-90
2021/07/20 00:38:34;;;;;;;;;;;;;;;-148.22;100.00;58358.63;5058445;28;1157;-91
2021/07/20 00:41:28;;;;;;;;;;;;;;;-148.22;100.00;58358.63;5074828;28;1418;-91
2021/07/20 00:47:28;;;;;;;;;;;;;;;-148.22;100.00;58358.63;5059434;28;605;-90
2021/07/20 00:49:55;;;;;;;;;;;;;;;-148.22;100.00;58358.63;5057955;28;1943;-89
2021/07/20 00:55:23;;;;;;;;;;;;;;;-148.22;100.00;58358.63;5059144;28;593;-91
2021/07/20 00:57:48;;;;;;;;;;;;;;;-148.22;100.00;58358.63;5074738;28;1371;-91
2021/07/20 01:03:16;;;;;;;;;;;;;;;-148.22;100.00;58358.63;5059052;28;598;-91
2021/07/20 01:11:47;;;;;;;;;;;;;;;-148.22;100.00;58358.63;5048420;28;1214;-89
2021/07/20 01:14:13;;;;;;;;;;;;;;;-148.22;100.00;58358.63;5074263;28;1148;-90
2021/07/20 01:16:39;;;;;;;;;;;;;;;-148.22;100.00;58358.63;5074204;28;1265;-91
2021/07/20 01:19:40;;;;;;;;;;;;;;;-148.22;100.00;58358.63;5074234;28;1203;-91
2021/07/20 01:22:33;;;;;;;;;;;;;;;-148.22;100.00;58358.63;5057504;28;1156;-90
2021/07/20 01:25:19;;;;;;;;;;;;;;;-148.22;100.00;58358.63;5057348;28;1340;-90
2021/07/20 01:27:50;;;;;;;;;;;;;;;-148.22;100.00;58358.63;5056683;28;1338;-90
2021/07/20 01:30:53;;;;;;;;;;;;;;;-148.22;100.00;58358.63;5073865;28;1914;-91
2021/07/20 01:33:40;;;;;;;;;;;;;;;-148.22;100.00;58358.63;5057149;28;1368;-90
2021/07/20 01:36:26;;;;;;;;;;;;;;;-148.22;100.00;58358.63;5058293;28;771;-89
2021/07/20 01:39:02;;;;;;;;;;;;;;;-148.22;100.00;58358.63;5073862;28;1365;-90
2021/07/20 01:47:58;;;;;;;;;;;;;;;-148.22;100.00;58358.63;5058228;28;651;-90
2021/07/20 01:54:00;;;;;;;;;;;;;;;-148.22;100.00;58358.63;5058274;28;613;-90
2021/07/20 01:56:52;;;;;;;;;;;;;;;-148.22;100.00;58358.63;5056982;28;1262;-90
2021/07/20 02:08:27;;;;;;;;;;;;;;;-148.22;100.00;58358.63;5057768;28;1961;-92
2021/07/20 02:11:07;;;;;;;;;;;;;;;-148.22;100.00;58358.63;5057342;28;914;-91
2021/07/20 02:13:42;;;;;;;;;;;;;;;-148.22;100.00;58358.63;5053176;28;1255;-92
2021/07/20 02:19:37;;;;;;;;;;;;;;;-148.22;100.00;58358.63;5037764;28;673;-90
2021/07/20 02:22:03;;;;;;;;;;;;;;;-148.22;100.00;58358.63;5036519;28;1164;-91
2021/07/20 02:27:58;;;;;;;;;;;;;;;-148.22;100.00;58358.63;5037424;28;640;-91
2021/07/20 02:30:36;;;;;;;;;;;;;;;-148.22;100.00;58358.63;5036189;28;1902;-92
2021/07/20 02:33:20;;;;;;;;;;;;;;;-148.22;100.00;58358.63;5052836;28;1365;-92
2021/07/20 02:35:58;;;;;;;;;;;;;;;-148.22;100.00;58358.63;5052889;28;1448;-92
2021/07/20 02:38:36;;;;;;;;;;;;;;;-148.22;100.00;58358.63;5052327;28;1245;-92
2021/07/20 02:41:23;;;;;;;;;;;;;;;-148.22;100.00;58358.63;5037373;28;1057;-92
2021/07/20 02:44:06;;;;;;;;;;;;;;;-148.22;100.00;58358.63;5052663;28;1191;-93
2021/07/20 02:49:36;;;;;;;;;;;;;;;-148.22;100.00;58358.63;5037199;28;1878;-91
2021/07/20 02:58:07;;;;;;;;;;;;;;;-148.22;100.00;58358.63;5036845;28;669;-92
2021/07/20 03:03:50;;;;;;;;;;;;;;;-148.22;100.00;58358.63;5036771;28;607;-91
2021/07/20 03:06:55;;;;;;;;;;;;;;;-148.22;100.00;58358.63;5052411;28;1187;-93
2021/07/20 03:09:30;;;;;;;;;;;;;;;-148.22;100.00;58358.63;5035436;28;1953;-92
2021/07/20 03:15:12;;;;;;;;;;;;;;;-148.22;100.00;58358.63;5056659;28;609;-92
2021/07/20 03:17:37;;;;;;;;;;;;;;;-148.22;100.00;58358.63;5071806;28;1335;-92
2021/07/20 03:20:23;;;;;;;;;;;;;;;-148.22;100.00;58358.63;5071983;28;1199;-92
2021/07/20 03:22:51;;;;;;;;;;;;;;;-148.22;100.00;58358.63;5071857;28;1209;-92
2021/07/20 03:28:19;;;;;;;;;;;;;;;-148.22;100.00;58358.63;5056172;28;1983;-92
2021/07/20 03:30:49;;;;;;;;;;;;;;;-148.22;100.00;58358.63;5055096;28;1155;-93
2021/07/20 03:36:18;;;;;;;;;;;;;;;-148.22;100.00;58358.63;5056234;28;636;-93
2021/07/20 03:39:03;;;;;;;;;;;;;;;-148.22;100.00;58358.63;5071604;28;1302;-92
2021/07/20 03:45:05;;;;;;;;;;;;;;;-148.22;100.00;58358.63;5056295;28;593;-94
2021/07/20 03:50:34;;;;;;;;;;;;;;;-148.22;100.00;58358.63;5055609;28;1943;-92
2021/07/20 03:56:04;;;;;;;;;;;;;;;-148.22;100.00;58358.63;5055993;28;590;-93
2021/07/20 03:58:49;;;;;;;;;;;;;;;-148.22;100.00;58358.63;5071429;28;1312;-93
2021/07/20 04:01:35;;;;;;;;;;;;;;;-148.22;100.00;58358.63;5071271;28;1234;-92
2021/07/20 04:04:21;;;;;;;;;;;;;;;-148.22;100.00;58358.63;5054606;28;1180;-93
2021/07/20 04:09:49;;;;;;;;;;;;;;;-148.22;100.00;58358.63;5055904;28;1898;-92
2021/07/20 04:15:17;;;;;;;;;;;;;;;-148.22;100.00;58358.63;5054443;28;1146;-93
2021/07/20 04:17:43;;;;;;;;;;;;;;;-148.22;100.00;58358.63;5071193;28;1199;-93
2021/07/20 04:32:38;;;;;;;;;;;;;;;-148.22;100.00;58358.63;5055857;28;641;-92
2021/07/20 04:35:03;;;;;;;;;;;;;;;-148.22;100.00;58358.63;5054371;28;1275;-92
2021/07/20 04:37:48;;;;;;;;;;;;;;;-148.22;100.00;58358.63;5071055;28;1298;-93
2021/07/20 04:43:23;;;;;;;;;;;;;;;-148.22;100.00;58358.63;5055387;28;653;-93
2021/07/20 04:49:18;;;;;;;;;;;;;;;-148.22;100.00;58358.63;5055318;28;1918;-90
2021/07/20 04:52:20;;;;;;;;;;;;;;;-148.22;100.00;58358.63;5055230;28;870;-90
2021/07/20 05:01:25;;;;;;;;;;;;;;;-148.22;100.00;58358.63;5055336;28;566;-90
2021/07/20 05:04:00;;;;;;;;;;;;;;;-148.22;100.00;58358.63;5057236;28;1149;-88
2021/07/20 05:07:07;;;;;;;;;;;;;;;-148.22;100.00;58358.63;5074489;28;1258;-89
2021/07/20 05:10:02;;;;;;;;;;;;;;;-148.22;100.00;58358.63;5057567;28;1938;-90
2021/07/20 05:12:35;;;;;;;;;;;;;;;-148.22;100.00;58358.63;5057797;28;1155;-90
2021/07/20 05:15:01;;;;;;;;;;;;;;;-148.22;100.00;58358.63;5074198;28;1406;-89
2021/07/20 05:17:52;;;;;;;;;;;;;;;-148.22;100.00;58358.63;5074154;28;1189;-90
2021/07/20 05:20:19;;;;;;;;;;;;;;;-148.22;100.00;58358.63;5057591;28;1147;-90
2021/07/20 05:23:06;;;;;;;;;;;;;;;-148.22;100.00;58358.63;5074108;28;1216;-91
2021/07/20 05:25:53;;;;;;;;;;;;;;;-148.22;100.00;58358.63;5057424;28;1199;-91
2021/07/20 05:28:47;;;;;;;;;;;;;;;-148.22;100.00;58358.63;5073996;28;1985;-89
2021/07/20 05:31:29;;;;;;;;;;;;;;;-148.22;100.00;58358.63;5057284;28;1237;-89
2021/07/20 05:33:56;;;;;;;;;;;;;;;-148.22;100.00;58358.63;5074234;28;1258;-89
2021/07/20 05:39:25;;;;;;;;;;;;;;;-148.22;100.00;58358.63;5058323;28;602;-89
2021/07/20 05:42:04;;;;;;;;;;;;;;;-148.22;100.00;58358.63;5073745;28;1211;-90
2021/07/20 05:44:58;;;;;;;;;;;;;;;-148.22;100.00;58358.63;5073792;28;1278;-89
2021/07/20 05:47:42;;;;;;;;;;;;;;;-148.22;100.00;58358.63;4980512;28;1265;-89
2021/07/20 05:53:25;;;;;;;;;;;;;;;-148.22;100.00;58358.63;4957938;29;1134;-89
2021/07/20 05:56:06;;;;;;;;;;;;;;;-148.22;100.00;58358.63;4942058;29;1199;-89
2021/07/20 05:58:56;;;;;;;;;;;;;;;-148.22;100.00;58358.63;4941897;29;1266;-89
2021/07/20 06:01:41;;;;;;;;;;;;;;;-148.22;100.00;58358.63;4957807;29;1343;-89
2021/07/20 06:04:18;;;;;;;;;;;;;;;-148.22;100.00;58358.63;4957623;29;1249;-92
2021/07/20 06:07:12;;;;;;;;;;;;;;;-148.22;100.00;58358.63;4941771;29;1202;-93
2021/07/20 06:10:02;;;;;;;;;;;;;;;-148.22;100.00;58358.63;4957506;29;1899;-91
2021/07/20 06:12:27;;;;;;;;;;;;;;;-148.22;100.00;58358.63;4957730;29;1215;-92
2021/07/20 06:14:54;;;;;;;;;;;;;;;-148.22;100.00;58358.63;4957398;28;1171;-91
2021/07/20 06:17:29;;;;;;;;;;;;;;;-148.22;100.00;58358.63;4941414;29;1210;-91
2021/07/20 06:20:03;;;;;;;;;;;;;;;-148.22;100.00;58358.63;4941512;29;1204;-92
2021/07/20 06:22:55;;;;;;;;;;;;;;;-148.22;100.00;58358.63;4941194;29;1279;-90
2021/07/20 06:29:06;;;;;;;;;;;;;;;-148.22;100.00;58358.63;4957371;29;1970;-90
2021/07/20 06:31:57;;;;;;;;;;;;;;;-148.22;100.00;58358.63;4999553;28;1250;-91
2021/07/20 06:34:52;;;;;;;;;;;;;;;-148.22;100.00;58358.63;5015834;28;918;-92
2021/07/20 06:37:19;;;;;;;;;;;;;;;-148.22;100.00;58358.63;4999305;28;1380;-92
2021/07/20 06:42:48;;;;;;;;;;;;;;;-148.22;100.00;58358.63;5015536;28;610;-91
2021/07/20 06:45:25;;;;;;;;;;;;;;;-148.22;100.00;58358.63;4999082;28;1355;-90
2021/07/20 06:48:06;;;;;;;;;;;;;;;-148.22;100.00;58358.63;4999317;28;1343;-92
2021/07/20 06:50:55;;;;;;;;;;;;;;;-148.22;100.00;58358.63;4999719;28;1878;-89
2021/07/20 06:53:36;;;;;;;;;;;;;;;-148.22;100.00;58358.63;4997448;28;1196;-89
2021/07/20 07:02:27;;;;;;;;;;;;;;;-148.22;100.00;58358.63;5015365;28;650;-89
2021/07/20 07:04:55;;;;;;;;;;;;;;;-148.22;100.00;58358.63;5072346;23;1807;-89
2021/07/20 07:07:21;;;;;;;;;;;;;;;-148.22;100.00;58358.63;5074590;28;1350;-90
2021/07/20 07:13:17;;;;;;;;;;;;;;;-148.22;100.00;58358.63;5076385;28;957;-87
2021/07/20 07:15:44;;;;;;;;;;;;;;;-148.22;100.00;58358.63;5018124;28;1128;-88
2021/07/20 07:18:24;;;;;;;;;;;;;;;-148.22;100.00;58358.63;4995308;28;1229;-90
2021/07/20 07:20:52;;;;;;;;;;;;;;;-148.22;100.00;58358.63;4979066;28;1215;-90
2021/07/20 07:26:21;;;;;;;;;;;;;;;-148.22;100.00;58358.63;4994794;28;1165;-91
2021/07/20 07:28:49;;;;;;;;;;;;;;;-148.22;100.00;58358.63;4979028;28;1989;-91
2021/07/20 07:34:19;;;;;;;;;;;;;;;-148.22;100.00;58358.63;4995091;28;992;-89
2021/07/20 07:37:11;;;;;;;;;;;;;;;-148.22;100.00;58358.63;4978675;28;1386;-89
2021/07/20 07:39:45;;;;;;;;;;;;;;;-148.22;100.00;58358.63;4978909;28;1189;-90
2021/07/20 07:42:43;;;;;;;;;;;;;;;-148.22;100.00;58358.63;4978972;28;1247;-91
2021/07/20 07:51:14;;;;;;;;;;;;;;;-148.22;100.00;58358.63;5034473;28;625;-91
2021/07/20 07:56:42;;;;;;;;;;;;;;;-148.22;100.00;58358.63;5076113;28;638;-89
2021/07/20 07:59:10;;;;;;;;;;;;;;;-148.22;100.00;58358.63;5074609;28;1354;-91
2021/07/20 08:01:49;;;;;;;;;;;;;;;-148.22;100.00;58358.63;5074642;28;1245;-89
2021/07/20 08:04:17;;;;;;;;;;;;;;;-148.22;100.00;58358.63;5074392;28;1289;-90
2021/07/20 08:06:43;;;;;;;;;;;;;;;-148.22;100.00;58358.63;5074696;28;1330;-88
2021/07/20 08:09:25;;;;;;;;;;;;;;;-148.22;100.00;58358.63;5074594;28;1977;-90
2021/07/20 08:11:52;;;;;;;;;;;;;;;-148.22;100.00;58358.63;5074713;28;1305;-90
2021/07/20 08:21:02;;;;;;;;;;;;;;;-148.22;100.00;58358.63;5056606;28;594;-91
2021/07/20 08:23:27;;;;;;;;;;;;;;;-148.22;100.00;58358.63;5055349;28;1094;-90
2021/07/20 08:26:21;;;;;;;;;;;;;;;-148.22;100.00;58358.63;5055081;28;1075;-88
2021/07/20 08:29:06;;;;;;;;;;;;;;;-148.22;100.00;58358.63;5055701;28;1910;-90
2021/07/20 08:31:55;;;;;;;;;;;;;;;-148.22;100.00;58358.63;5054300;28;1273;-89
2021/07/20 08:34:52;;;;;;;;;;;;;;;-148.22;100.00;58358.63;5054438;28;1072;-91
2021/07/20 08:40:28;;;;;;;;;;;;;;;-148.22;100.00;58358.63;5059527;28;664;-93
2021/07/20 08:46:18;;;;;;;;;;;;;;;-148.22;100.00;58358.63;5059577;28;620;-94
2021/07/20 08:51:58;;;;;;;;;;;;;;;-148.22;100.00;58358.63;5059434;28;601;-92
2021/07/20 08:54:53;;;;;;;;;;;;;;;-148.22;100.00;58358.63;5058044;28;1147;-91
2021/07/20 08:57:55;;;;;;;;;;;;;;;-148.22;100.00;58358.63;5057964;28;1284;-91
2021/07/20 09:06:47;;;;;;;;;;;;;;;-148.22;100.00;58358.63;5031112;28;913;-92
2021/07/20 09:09:18;;;;;;;;;;;;;;;-148.22;100.00;58358.63;5000556;28;1922;-91
2021/07/20 09:12:16;;;;;;;;;;;;;;;-148.22;100.00;58358.63;5000509;28;1285;-91
2021/07/20 09:14:56;;;;;;;;;;;;;;;-148.22;100.00;58358.63;4977760;28;1174;-91
2021/07/20 09:17:52;;;;;;;;;;;;;;;-148.22;100.00;58358.63;4978303;28;1158;-91
2021/07/20 09:20:31;;;;;;;;;;;;;;;-148.22;100.00;58358.63;4977810;28;935;-91
2021/07/20 09:26:08;;;;;;;;;;;;;;;-148.22;100.00;58358.63;4978215;28;666;-91
2021/07/20 09:29:00;;;;;;;;;;;;;;;-148.22;100.00;58358.63;4961787;28;1890;-91
2021/07/20 09:34:48;;;;;;;;;;;;;;;-148.22;100.00;58358.63;4967345;28;931;-91
2021/07/20 09:37:48;;;;;;;;;;;;;;;-148.22;100.00;58358.63;4942264;29;1140;-92
2021/07/20 09:43:19;;;;;;;;;;;;;;;-148.22;100.00;58358.63;4958298;29;1196;-92
2021/07/20 09:46:07;;;;;;;;;;;;;;;-148.22;100.00;58358.63;4942168;29;1168;-92
2021/07/20 09:49:00;;;;;;;;;;;;;;;-148.22;100.00;58358.63;4957835;28;1952;-93
2021/07/20 09:54:59;;;;;;;;;;;;;;;-148.22;100.00;58358.63;5018369;28;591;-92
2021/07/20 09:57:53;;;;;;;;;;;;;;;-148.22;100.00;58358.63;5017220;28;1191;-87
2021/07/20 10:03:16;;;;;;;;;;;;;;;-148.22;100.00;58358.63;5018101;28;989;-88
2021/07/20 10:06:00;;;;;;;;;;;;;;;-148.22;100.00;58358.63;5042518;28;1269;-89
2021/07/20 10:08:33;;;;;;;;;;;;;;;-148.22;100.00;58358.63;5056707;28;1184;-88
2021/07/20 10:11:15;;;;;;;;;;;;;;;-148.22;100.00;58358.63;5056599;28;1252;-88
2021/07/20 10:23:05;;;;;;;;;;;;;;;-148.22;100.00;58358.63;5057729;28;610;-87
2021/07/20 10:26:04;;;;;;;;;;;;;;;-148.22;100.00;58358.63;5056525;28;1376;-88
2021/07/20 10:31:51;;;;;;;;;;;;;;;-148.22;100.00;58358.63;5057464;28;585;-87
2021/07/20 10:37:20;;;;;;;;;;;;;;;-148.22;100.00;58358.63;5057365;28;664;-90
2021/07/20 10:40:14;;;;;;;;;;;;;;;-148.22;100.00;58358.63;5055942;28;1211;-89
2021/07/20 10:43:12;;;;;;;;;;;;;;;-148.22;100.00;58358.63;5055911;28;1296;-86
2021/07/20 10:49:06;;;;;;;;;;;;;;;-148.22;100.00;58358.63;5056859;28;1894;-94
2021/07/20 10:54:45;;;;;;;;;;;;;;;-148.22;100.00;58358.63;5056900;28;589;-94
2021/07/20 11:00:15;;;;;;;;;;;;;;;-148.22;100.00;58358.63;5056028;28;606;-91
2021/07/20 11:05:45;;;;;;;;;;;;;;;-148.22;100.00;58358.63;5052614;28;1173;-90
2021/07/20 11:08:11;;;;;;;;;;;;;;;-148.22;100.00;58358.63;5055320;28;1295;-89
2021/07/20 11:13:45;;;;;;;;;;;;;;;-148.22;100.00;58358.63;5056463;28;633;-93
2021/07/20 11:19:40;;;;;;;;;;;;;;;-148.22;100.00;58358.63;5056601;28;673;-93
2021/07/20 11:22:18;;;;;;;;;;;;;;;-148.22;100.00;58358.63;5055624;28;1370;-90
2021/07/20 11:24:59;;;;;;;;;;;;;;;-148.22;100.00;58358.63;5055373;28;1150;-87
2021/07/20 11:27:39;;;;;;;;;;;;;;;-148.22;100.00;58358.63;5055057;28;1310;-83
2021/07/20 11:30:17;;;;;;;;;;;;;;;-148.22;100.00;58358.63;5054975;28;1886;-87
2021/07/20 11:32:57;;;;;;;;;;;;;;;-148.22;100.00;58358.63;5055168;28;1260;-86
2021/07/20 11:41:34;;;;;;;;;;;;;;;-148.22;100.00;58358.63;5056157;28;617;-89
2021/07/20 11:44:23;;;;;;;;;;;;;;;-148.22;100.00;58358.63;5054712;28;1206;-89
2021/07/20 11:47:13;;;;;;;;;;;;;;;-148.22;100.00;58358.63;5054098;28;920;-88
2021/07/20 11:52:59;;;;;;;;;;;;;;;-148.22;100.00;58358.63;5073410;28;1159;-89
2021/07/20 11:55:51;;;;;;;;;;;;;;;-148.22;100.00;58358.63;5074145;28;972;-89
2021/07/20 11:58:53;;;;;;;;;;;;;;;-148.22;100.00;58358.63;5074047;28;1310;-89
2021/07/20 12:01:51;;;;;;;;;;;;;;;-148.22;100.00;58358.63;5073814;28;1255;-89
2021/07/20 12:04:47;;;;;;;;;;;;;;;-148.22;100.00;58358.63;5073847;28;1211;-89
2021/07/20 12:07:29;;;;;;;;;;;;;;;-148.22;100.00;58358.63;5033951;28;1310;-90
2021/07/20 12:13:30;;;;;;;;;;;;;;;-148.22;100.00;58358.63;5040221;28;1150;-87
2021/07/20 12:16:21;;;;;;;;;;;;;;;-148.22;100.00;58358.63;5023643;28;1154;-87
2021/07/20 12:18:59;;;;;;;;;;;;;;;-148.22;100.00;58358.63;5023872;28;1165;-88
2021/07/20 12:21:37;;;;;;;;;;;;;;;-148.22;100.00;58358.63;5023864;28;1347;-89
2021/07/20 12:24:05;;;;;;;;;;;;;;;-148.22;100.00;58358.63;5000486;28;1296;-89
2021/07/20 12:26:33;;;;;;;;;;;;;;;-148.22;100.00;58358.63;4997714;28;1339;-91
2021/07/20 12:28:58;;;;;;;;;;;;;;;-148.22;100.00;58358.63;5003834;28;1981;-89
2021/07/20 12:34:36;;;;;;;;;;;;;;;-148.22;100.00;58358.63;5004815;28;1219;-87
2021/07/20 12:37:01;;;;;;;;;;;;;;;-148.22;100.00;58358.63;5003680;28;1163;-88
2021/07/20 12:39:38;;;;;;;;;;;;;;;-148.22;100.00;58358.63;4989079;28;1322;-88
2021/07/20 12:42:06;;;;;;;;;;;;;;;-148.22;100.00;58358.63;4986238;28;1286;-88
2021/07/20 12:44:31;;;;;;;;;;;;;;;-148.22;100.00;58358.63;5003630;28;1160;-88
2021/07/20 12:47:07;;;;;;;;;;;;;;;-148.22;100.00;58358.63;4991034;28;1208;-90
2021/07/20 12:49:43;;;;;;;;;;;;;;;-148.22;100.00;58358.63;4995714;28;1962;-90
2021/07/20 12:52:24;;;;;;;;;;;;;;;-148.22;100.00;58358.63;5021290;28;1163;-90
2021/07/20 12:55:09;;;;;;;;;;;;;;;-148.22;100.00;58358.63;5021092;28;1176;-89
2021/07/20 12:58:05;;;;;;;;;;;;;;;-148.22;100.00;58358.63;5022068;28;997;-89
2021/07/20 13:00:55;;;;;;;;;;;;;;;-148.22;100.00;58358.63;5020963;28;1212;-89
2021/07/20 13:03:55;;;;;;;;;;;;;;;-148.22;100.00;58358.63;5020870;28;1222;-89
2021/07/20 13:06:20;;;;;;;;;;;;;;;-148.22;100.00;58358.63;5046966;28;1286;-89
2021/07/20 13:09:15;;;;;;;;;;;;;;;-148.22;100.00;58358.63;5060591;28;1910;-89
2021/07/20 13:11:53;;;;;;;;;;;;;;;-148.22;100.00;58358.63;5061879;28;870;-89
2021/07/20 13:14:21;;;;;;;;;;;;;;;-148.22;100.00;58358.63;5060479;28;1164;-89
2021/07/20 13:16:48;;;;;;;;;;;;;;;-148.22;100.00;58358.63;5061659;28;858;-90
2021/07/20 13:19:17;;;;;;;;;;;;;;;-148.22;100.00;58358.63;5059887;28;1167;-89
2021/07/20 13:22:00;;;;;;;;;;;;;;;-148.22;100.00;58358.63;5059496;28;1313;-90
2021/07/20 13:27:49;;;;;;;;;;;;;;;-148.22;100.00;58358.63;5058489;28;634;-90
2021/07/20 13:30:44;;;;;;;;;;;;;;;-148.22;100.00;58358.63;5056920;28;1890;-90
2021/07/20 13:33:09;;;;;;;;;;;;;;;-148.22;100.00;58358.63;5057195;28;1265;-90
2021/07/20 13:36:06;;;;;;;;;;;;;;;-148.22;100.00;58358.63;5057247;28;1326;-89
2021/07/20 13:39:09;;;;;;;;;;;;;;;-148.22;100.00;58358.63;5036393;28;1409;-90
2021/07/20 13:42:09;;;;;;;;;;;;;;;-148.22;100.00;58358.63;4977458;28;1206;-90
2021/07/20 13:44:53;;;;;;;;;;;;;;;-148.22;100.00;58358.63;4977376;28;1275;-91
2021/07/20 13:47:19;;;;;;;;;;;;;;;-148.22;100.00;58358.63;4977288;28;1235;-91
2021/07/20 13:50:23;;;;;;;;;;;;;;;-148.22;100.00;58358.63;4977591;28;1894;-91
2021/07/20 13:53:16;;;;;;;;;;;;;;;-148.22;100.00;58358.63;4977496;28;1388;-91
2021/07/20 13:56:11;;;;;;;;;;;;;;;-148.22;100.00;58358.63;4976994;28;1284;-90
2021/07/20 13:59:04;;;;;;;;;;;;;;;-148.22;100.00;58358.63;4957967;29;1339;-92
2021/07/20 14:01:49;;;;;;;;;;;;;;;-148.22;100.00;58358.63;4957682;29;1331;-92
2021/07/20 14:07:20;;;;;;;;;;;;;;;-148.22;100.00;58358.63;4947203;29;1095;-91
2021/07/20 14:09:46;;;;;;;;;;;;;;;-148.22;100.00;58358.63;4958889;29;1965;-96
2021/07/20 14:15:14;;;;;;;;;;;;;;;-148.22;100.00;58358.63;4974229;28;1342;-91
2021/07/20 14:18:05;;;;;;;;;;;;;;;-148.22;100.00;58358.63;4980113;28;1273;-91
2021/07/20 14:20:51;;;;;;;;;;;;;;;-148.22;100.00;58358.63;4980420;28;1148;-94
2021/07/20 14:23:51;;;;;;;;;;;;;;;-148.22;100.00;58358.63;4979887;28;1267;-91
2021/07/20 14:26:46;;;;;;;;;;;;;;;-148.22;100.00;58358.63;4979896;28;1259;-91
2021/07/20 14:29:42;;;;;;;;;;;;;;;-148.22;100.00;58358.63;4979706;28;1890;-91
2021/07/20 14:32:15;;;;;;;;;;;;;;;-148.22;100.00;58358.63;4980034;28;1152;-91
2021/07/20 14:34:55;;;;;;;;;;;;;;;-148.22;100.00;58358.63;5003784;28;1237;-91
2021/07/20 14:37:46;;;;;;;;;;;;;;;-148.22;100.00;58358.63;5057082;28;783;-92
2021/07/20 14:40:36;;;;;;;;;;;;;;;-148.22;100.00;58358.63;5036134;28;1196;-91
2021/07/20 14:43:13;;;;;;;;;;;;;;;-148.22;100.00;58358.63;5040171;28;1310;-91
2021/07/20 14:45:57;;;;;;;;;;;;;;;-148.22;100.00;58358.63;5056153;28;1269;-91
2021/07/20 14:48:23;;;;;;;;;;;;;;;-148.22;100.00;58358.63;5035896;28;1389;-91
2021/07/20 14:50:51;;;;;;;;;;;;;;;-148.22;100.00;58358.63;5036121;28;1867;-92
2021/07/20 14:53:28;;;;;;;;;;;;;;;-148.22;100.00;58358.63;5035914;28;1286;-92
2021/07/20 14:59:24;;;;;;;;;;;;;;;-148.22;100.00;58358.63;5036818;28;602;-91
2021/07/20 15:01:51;;;;;;;;;;;;;;;-148.22;100.00;58358.63;5018602;28;1300;-91
2021/07/20 15:07:19;;;;;;;;;;;;;;;-148.22;100.00;58358.63;5034412;28;1134;-92
2021/07/20 15:09:53;;;;;;;;;;;;;;;-148.22;100.00;58358.63;5036080;28;1910;-92
2021/07/20 15:12:57;;;;;;;;;;;;;;;-148.22;100.00;58358.63;5050143;28;1297;-92
2021/07/20 15:18:55;;;;;;;;;;;;;;;-148.22;100.00;58358.63;5054598;28;927;-93
2021/07/20 15:21:39;;;;;;;;;;;;;;;-148.22;100.00;58358.63;5054424;28;1311;-92
2021/07/20 15:27:14;;;;;;;;;;;;;;;-148.22;100.00;58358.63;5054681;28;652;-92
2021/07/20 15:30:00;;;;;;;;;;;;;;;-148.22;100.00;58358.63;5054229;28;1894;-92
2021/07/20 15:32:38;;;;;;;;;;;;;;;-148.22;100.00;58358.63;5054163;28;1171;-89
2021/07/20 15:35:04;;;;;;;;;;;;;;;-148.22;100.00;58358.63;5053915;28;1044;-89
2021/07/20 15:37:49;;;;;;;;;;;;;;;-148.22;100.00;58358.63;5036532;28;1184;-89
2021/07/20 15:40:54;;;;;;;;;;;;;;;-148.22;100.00;58358.63;5036291;28;1151;-89
2021/07/20 15:43:39;;;;;;;;;;;;;;;-148.22;100.00;58358.63;5035038;28;1190;-90
2021/07/20 15:46:29;;;;;;;;;;;;;;;-148.22;100.00;58358.63;5034766;28;1232;-89
2021/07/20 15:49:10;;;;;;;;;;;;;;;-148.22;100.00;58358.63;5034316;28;1903;-89
2021/07/20 15:52:06;;;;;;;;;;;;;;;-148.22;100.00;58358.63;5035409;28;1151;-89
2021/07/20 15:58:12;;;;;;;;;;;;;;;-148.22;100.00;58358.63;5035958;28;668;-89
2021/07/20 16:00:55;;;;;;;;;;;;;;;-148.22;100.00;58358.63;5034729;28;1438;-89
2021/07/20 16:06:24;;;;;;;;;;;;;;;-148.22;100.00;58358.63;5036802;28;1186;-90
2021/07/20 16:08:49;;;;;;;;;;;;;;;-148.22;100.00;58358.63;5054751;28;1910;-91
2021/07/20 16:20:32;;;;;;;;;;;;;;;-148.22;100.00;58358.63;5074014;28;613;-91
2021/07/20 16:26:04;;;;;;;;;;;;;;;-148.22;100.00;58358.63;5073787;28;936;-89
2021/07/20 16:28:39;;;;;;;;;;;;;;;-148.22;100.00;58358.63;5053722;28;1224;-89
2021/07/20 16:31:24;;;;;;;;;;;;;;;-148.22;100.00;58358.63;5067677;28;1898;-89
2021/07/20 16:34:09;;;;;;;;;;;;;;;-148.22;100.00;58358.63;5073944;28;1309;-89
2021/07/20 16:36:55;;;;;;;;;;;;;;;-148.22;100.00;58358.63;5070869;28;1114;-92
2021/07/20 16:39:22;;;;;;;;;;;;;;;-148.22;100.00;58358.63;5071382;28;1170;-91
2021/07/20 16:44:50;;;;;;;;;;;;;;;-148.22;100.00;58358.63;5073611;28;1077;-91
2021/07/20 16:53:23;;;;;;;;;;;;;;;-148.22;100.00;58358.63;5055548;28;625;-91
2021/07/20 16:59:30;;;;;;;;;;;;;;;-148.22;100.00;58358.63;5057141;28;697;-91
2021/07/20 17:02:01;;;;;;;;;;;;;;;-148.22;100.00;58358.63;5057924;28;1175;-91
2021/07/20 17:04:37;;;;;;;;;;;;;;;-148.22;100.00;58358.63;5057793;28;1166;-91
2021/07/20 17:07:02;;;;;;;;;;;;;;;-148.22;100.00;58358.63;5055988;28;1022;-91
2021/07/20 17:09:27;;;;;;;;;;;;;;;-148.22;100.00;58358.63;5057856;28;1973;-91
2021/07/20 17:12:06;;;;;;;;;;;;;;;-148.22;100.00;58358.63;5058860;28;989;-90
2021/07/20 17:14:47;;;;;;;;;;;;;;;-148.22;100.00;58358.63;5057785;28;1183;-91
2021/07/20 17:23:18;;;;;;;;;;;;;;;-148.22;100.00;58358.63;5058715;28;628;-91
2021/07/20 17:28:53;;;;;;;;;;;;;;;-148.22;100.00;58358.63;5058366;28;943;-91
2021/07/20 17:31:51;;;;;;;;;;;;;;;-148.22;100.00;58358.63;5057497;28;1179;-91
2021/07/20 17:34:37;;;;;;;;;;;;;;;-148.22;100.00;58358.63;5057342;28;1241;-91
2021/07/20 17:37:19;;;;;;;;;;;;;;;-148.22;100.00;58358.63;5057123;28;1216;-91
2021/07/20 17:40:00;;;;;;;;;;;;;;;-148.22;100.00;58358.63;5057264;28;1186;-91
2021/07/20 17:48:33;;;;;;;;;;;;;;;-148.22;100.00;58358.63;5058181;28;1089;-91
2021/07/20 17:54:02;;;;;;;;;;;;;;;-148.22;100.00;58358.63;5058157;28;574;-90
2021/07/20 17:56:27;;;;;;;;;;;;;;;-148.22;100.00;58358.63;5058055;28;815;-90
2021/07/20 17:59:26;;;;;;;;;;;;;;;-148.22;100.00;58358.63;5056938;28;1186;-90
2021/07/20 18:02:03;;;;;;;;;;;;;;;-148.22;100.00;58358.63;5056809;28;1239;-91
2021/07/20 18:04:37;;;;;;;;;;;;;;;-148.22;100.00;58358.63;5056794;28;1172;-91
2021/07/20 18:07:07;;;;;;;;;;;;;;;-148.22;100.00;58358.63;5052143;28;1121;-91
2021/07/20 18:09:32;;;;;;;;;;;;;;;-148.22;100.00;58358.63;5057557;28;1918;-91
2021/07/20 18:12:33;;;;;;;;;;;;;;;-148.22;100.00;58358.63;5056608;28;985;-90
2021/07/20 18:15:01;;;;;;;;;;;;;;;-148.22;100.00;58358.63;5055799;28;1207;-91
2021/07/20 18:21:05;;;;;;;;;;;;;;;-148.22;100.00;58358.63;5035756;28;657;-92
2021/07/20 18:23:51;;;;;;;;;;;;;;;-148.22;100.00;58358.63;5035687;28;1190;-91
2021/07/20 18:26:48;;;;;;;;;;;;;;;-148.22;100.00;58358.63;5019097;28;1189;-91
2021/07/20 18:29:49;;;;;;;;;;;;;;;-148.22;100.00;58358.63;5035745;28;1886;-91
2021/07/20 18:32:29;;;;;;;;;;;;;;;-148.22;100.00;58358.63;5035537;28;1260;-90
2021/07/20 18:35:07;;;;;;;;;;;;;;;-148.22;100.00;58358.63;5018844;28;1400;-90
2021/07/20 18:37:34;;;;;;;;;;;;;;;-148.22;100.00;58358.63;5018896;28;1366;-90
2021/07/20 18:40:19;;;;;;;;;;;;;;;-148.22;100.00;58358.63;5018880;28;1157;-91